createdAt,value
2017-12-23T00:02:02.595Z,30.88
2017-12-23T00:04:29.307Z,28.73
2017-12-23T00:06:55.987Z,26.58
2017-12-23T00:09:22.916Z,32.05
2017-12-23T00:11:49.626Z,37.85
2017-12-23T00:14:16.307Z,32.38
2017-12-23T00:16:42.974Z,33.05
2017-12-23T00:19:09.683Z,33.15
2017-12-23T00:21:36.366Z,39.67
2017-12-23T00:26:34.058Z,33.65
2017-12-23T00:29:01.083Z,31.65
2017-12-23T00:31:27.772Z,28.77
2017-12-23T00:33:54.479Z,37.20
2017-12-23T00:36:21.159Z,32.17
2017-12-23T00:38:47.850Z,42.13
2017-12-23T00:41:14.559Z,36.47
2017-12-23T00:43:41.251Z,32.03
2017-12-23T00:46:07.947Z,36.28
2017-12-23T00:48:36.279Z,36.35
2017-12-23T00:51:02.963Z,36.83
2017-12-23T00:53:29.648Z,30.98
2017-12-23T00:55:56.351Z,38.25
2017-12-23T00:58:23.074Z,38.78
2017-12-23T01:00:49.753Z,41.63
2017-12-23T01:03:16.462Z,44.60
2017-12-23T01:05:43.559Z,46.67
2017-12-23T01:08:10.247Z,44.30
2017-12-23T01:10:36.979Z,45.70
2017-12-23T01:13:03.668Z,48.58
2017-12-23T01:15:30.355Z,48.60
2017-12-23T01:17:57.062Z,44.70
2017-12-23T01:20:23.755Z,45.90
2017-12-23T01:22:50.442Z,45.58
2017-12-23T01:25:17.153Z,48.38
2017-12-23T01:27:43.835Z,45.22
2017-12-23T01:30:10.781Z,50.90
2017-12-23T01:32:37.897Z,57.53
2017-12-23T01:35:04.587Z,51.63
2017-12-23T01:37:31.272Z,52.22
2017-12-23T01:39:58.603Z,50.80
2017-12-23T01:42:25.867Z,47.88
2017-12-23T01:44:52.560Z,53.72
2017-12-23T01:47:19.270Z,57.97
2017-12-23T01:49:46.203Z,62.78
2017-12-23T01:52:12.890Z,52.83
2017-12-23T01:54:39.602Z,56.75
2017-12-23T01:57:06.295Z,56.08
2017-12-23T01:59:32.979Z,55.78
2017-12-23T02:02:00.072Z,60.38
2017-12-23T02:04:27.028Z,57.03
2017-12-23T02:06:53.722Z,54.88
2017-12-23T02:09:20.428Z,56.80
2017-12-23T02:11:47.114Z,60.08
2017-12-23T02:14:13.802Z,59.78
2017-12-23T02:16:40.529Z,51.92
2017-12-23T02:19:07.571Z,53.20
2017-12-23T02:21:34.258Z,49.47
2017-12-23T02:24:00.974Z,53.70
2017-12-23T02:26:34.872Z,55.20
2017-12-23T02:29:02.232Z,47.10
2017-12-23T02:31:28.918Z,54.30
2017-12-23T02:33:55.645Z,51.30
2017-12-23T02:36:22.342Z,49.72
2017-12-23T02:38:49.051Z,50.25
2017-12-23T02:41:15.751Z,48.85
2017-12-23T02:43:42.464Z,45.12
2017-12-23T02:46:09.150Z,48.42
2017-12-23T02:48:35.851Z,45.17
2017-12-23T02:51:02.969Z,45.42
2017-12-23T02:53:30.121Z,48.40
2017-12-23T02:55:56.817Z,50.38
2017-12-23T02:58:23.532Z,52.83
2017-12-23T03:00:50.223Z,50.08
2017-12-23T03:03:16.935Z,55.20
2017-12-23T03:05:43.864Z,56.00
2017-12-23T03:08:10.816Z,51.37
2017-12-23T03:10:38.374Z,54.90
2017-12-23T03:13:05.085Z,44.65
2017-12-23T03:15:31.770Z,47.62
2017-12-23T03:17:58.816Z,51.17
2017-12-23T03:20:25.502Z,47.83
2017-12-23T03:22:52.210Z,44.70
2017-12-23T03:25:18.891Z,46.17
2017-12-23T03:27:46.637Z,46.08
2017-12-23T03:30:14.412Z,45.00
2017-12-23T03:32:41.097Z,43.65
2017-12-23T03:35:07.803Z,48.58
2017-12-23T03:37:34.482Z,48.65
2017-12-23T03:40:01.911Z,44.40
2017-12-23T03:42:29.103Z,42.08
2017-12-23T03:44:56.576Z,39.47
2017-12-23T03:47:23.709Z,42.05
2017-12-23T03:49:50.423Z,37.33
2017-12-23T03:52:17.110Z,39.70
2017-12-23T03:54:43.818Z,40.53
2017-12-23T03:57:10.499Z,37.45
2017-12-23T03:59:37.203Z,38.85
2017-12-23T04:02:04.153Z,37.13
2017-12-23T04:04:30.862Z,42.15
2017-12-23T04:06:57.818Z,38.75
2017-12-23T04:09:24.534Z,35.65
2017-12-23T04:11:51.222Z,40.92
2017-12-23T04:14:17.922Z,44.45
2017-12-23T04:16:44.604Z,39.08
2017-12-23T04:19:11.302Z,38.08
2017-12-23T04:21:37.982Z,53.03
2017-12-23T04:24:04.691Z,45.67
2017-12-23T04:26:31.382Z,41.65
2017-12-23T04:28:58.087Z,47.67
2017-12-23T04:31:24.784Z,41.95
2017-12-23T04:33:51.495Z,38.42
2017-12-23T04:36:18.427Z,42.40
2017-12-23T04:38:45.134Z,44.22
2017-12-23T04:41:11.810Z,47.70
2017-12-23T04:43:38.794Z,47.47
2017-12-23T04:46:05.519Z,47.83
2017-12-23T04:48:32.218Z,40.03
2017-12-23T04:50:58.935Z,46.53
2017-12-23T04:53:25.619Z,42.13
2017-12-23T04:55:52.329Z,40.72
2017-12-23T04:58:19.015Z,43.72
2017-12-23T05:00:45.724Z,39.65
2017-12-23T05:03:12.403Z,37.97
2017-12-23T05:05:39.107Z,36.65
2017-12-23T05:08:05.798Z,38.50
2017-12-23T05:10:32.500Z,39.00
2017-12-23T05:12:59.481Z,33.67
2017-12-23T05:15:26.183Z,33.50
2017-12-23T05:17:52.866Z,34.60
2017-12-23T05:20:19.574Z,33.03
2017-12-23T05:22:46.479Z,29.45
2017-12-23T05:25:13.199Z,27.02
2017-12-23T05:27:39.886Z,28.95
2017-12-23T05:30:07.019Z,27.50
2017-12-23T05:32:33.719Z,26.98
2017-12-23T05:35:00.424Z,24.17
2017-12-23T05:37:27.339Z,26.92
2017-12-23T05:39:54.059Z,28.12
2017-12-23T05:42:20.750Z,23.95
2017-12-23T05:44:47.459Z,27.00
2017-12-23T05:47:14.148Z,30.02
2017-12-23T05:49:41.915Z,30.62
2017-12-23T05:52:08.607Z,26.48
2017-12-23T05:54:35.318Z,24.55
2017-12-23T05:57:02.018Z,24.30
2017-12-23T05:59:28.710Z,20.77
2017-12-23T06:01:55.871Z,21.52
2017-12-23T06:04:22.882Z,22.33
2017-12-23T06:06:49.583Z,21.77
2017-12-23T06:09:16.271Z,17.27
2017-12-23T06:11:42.982Z,19.15
2017-12-23T06:14:09.662Z,15.77
2017-12-23T06:16:36.367Z,14.00
2017-12-23T06:19:03.067Z,14.02
2017-12-23T06:21:29.787Z,10.85
2017-12-23T06:23:56.468Z,11.65
2017-12-23T06:26:23.169Z,11.68
2017-12-23T06:28:49.845Z,10.70
2017-12-23T06:31:17.164Z,10.25
2017-12-23T06:33:43.846Z,11.07
2017-12-23T06:36:10.551Z,8.50
2017-12-23T06:38:37.243Z,10.60
2017-12-23T06:41:03.950Z,9.75
2017-12-23T06:43:30.639Z,10.75
2017-12-23T06:45:57.776Z,12.88
2017-12-23T06:48:25.657Z,13.30
2017-12-23T06:50:53.070Z,12.88
2017-12-23T06:53:19.991Z,13.82
2017-12-23T06:55:47.974Z,17.73
2017-12-23T06:58:15.400Z,15.93
2017-12-23T07:00:42.108Z,14.05
2017-12-23T07:03:08.804Z,16.98
2017-12-23T07:05:35.526Z,15.48
2017-12-23T07:08:02.202Z,14.95
2017-12-23T07:10:28.883Z,13.15
2017-12-23T07:12:55.590Z,15.40
2017-12-23T07:15:22.278Z,13.48
2017-12-23T07:17:48.987Z,11.70
2017-12-23T07:20:16.119Z,9.88
2017-12-23T07:22:42.823Z,9.77
2017-12-23T07:25:09.499Z,10.95
2017-12-23T07:27:36.212Z,13.30
2017-12-23T07:30:03.175Z,11.77
2017-12-23T07:32:30.132Z,12.10
2017-12-23T07:34:56.815Z,11.12
2017-12-23T07:37:23.514Z,10.10
2017-12-23T07:39:50.664Z,11.73
2017-12-23T07:42:17.799Z,12.48
2017-12-23T07:44:44.478Z,12.77
2017-12-23T07:47:11.183Z,12.45
2017-12-23T07:49:37.862Z,11.60
2017-12-23T07:52:04.571Z,11.52
2017-12-23T07:54:31.254Z,12.10
2017-12-23T07:56:57.966Z,9.90
2017-12-23T07:59:24.646Z,11.93
2017-12-23T08:01:51.345Z,12.70
2017-12-23T08:04:18.026Z,11.68
2017-12-23T08:06:44.741Z,12.00
2017-12-23T08:09:11.428Z,11.55
2017-12-23T08:11:38.474Z,11.30
2017-12-23T08:14:05.152Z,8.70
2017-12-23T08:16:32.576Z,12.30
2017-12-23T08:18:59.258Z,9.88
2017-12-23T08:21:25.948Z,10.88
2017-12-23T08:23:52.899Z,9.70
2017-12-23T08:26:19.586Z,9.02
2017-12-23T08:28:46.295Z,11.77
2017-12-23T08:31:13.207Z,10.13
2017-12-23T08:33:39.915Z,9.32
2017-12-23T08:36:06.594Z,9.40
2017-12-23T08:38:33.294Z,10.40
2017-12-23T08:40:59.979Z,9.88
2017-12-23T08:43:26.680Z,9.45
2017-12-23T08:45:53.354Z,10.85
2017-12-23T08:48:20.042Z,8.43
2017-12-23T08:50:46.736Z,10.10
2017-12-23T08:53:13.415Z,9.73
2017-12-23T08:55:40.115Z,9.73
2017-12-23T08:58:06.790Z,12.43
2017-12-23T09:00:33.497Z,11.38
2017-12-23T09:03:00.186Z,13.35
2017-12-23T09:05:26.891Z,15.55
2017-12-23T09:07:53.580Z,14.52
2017-12-23T09:10:20.299Z,15.45
2017-12-23T09:12:46.984Z,16.60
2017-12-23T09:15:13.699Z,19.65
2017-12-23T09:17:40.386Z,17.83
2017-12-23T09:20:08.520Z,19.87
2017-12-23T09:22:35.205Z,21.70
2017-12-23T09:25:01.907Z,18.27
2017-12-23T09:27:28.623Z,22.90
2017-12-23T09:29:55.309Z,23.42
2017-12-23T09:32:22.416Z,25.25
2017-12-23T09:34:49.620Z,28.83
2017-12-23T09:37:16.323Z,28.08
2017-12-23T09:39:43.049Z,29.33
2017-12-23T09:42:09.751Z,24.48
2017-12-23T09:44:36.439Z,27.35
2017-12-23T09:47:03.154Z,27.20
2017-12-23T09:49:30.336Z,26.30
2017-12-23T09:51:57.053Z,31.30
2017-12-23T09:54:24.315Z,27.92
2017-12-23T09:56:51.032Z,24.25
2017-12-23T09:59:17.712Z,30.35
2017-12-23T10:01:44.827Z,30.37
2017-12-23T10:04:11.515Z,30.77
2017-12-23T10:06:39.039Z,31.10
2017-12-23T10:09:05.721Z,26.30
2017-12-23T10:11:32.788Z,28.83
2017-12-23T10:13:59.520Z,30.02
2017-12-23T10:16:26.232Z,28.15
2017-12-23T10:18:53.339Z,29.63
2017-12-23T10:21:20.051Z,29.27
2017-12-23T10:23:46.748Z,26.60
2017-12-23T10:26:15.839Z,27.02
2017-12-23T10:28:42.835Z,30.83
2017-12-23T10:31:10.394Z,27.30
2017-12-23T10:33:37.088Z,32.97
2017-12-23T10:36:04.658Z,31.20
2017-12-23T10:38:31.342Z,27.00
2017-12-23T10:40:58.038Z,31.42
2017-12-23T10:43:24.760Z,30.90
2017-12-23T10:45:51.455Z,31.65
2017-12-23T10:48:18.166Z,32.03
2017-12-23T10:50:44.851Z,34.00
2017-12-23T10:53:12.595Z,33.72
2017-12-23T10:55:39.282Z,33.78
2017-12-23T10:58:06.793Z,33.72
2017-12-23T11:00:33.490Z,36.88
2017-12-23T11:03:00.195Z,34.05
2017-12-23T11:05:26.887Z,38.17
2017-12-23T11:07:53.586Z,37.47
2017-12-23T11:10:20.528Z,35.25
2017-12-23T11:12:47.950Z,36.70
2017-12-23T11:15:14.647Z,35.30
2017-12-23T11:17:41.354Z,33.97
2017-12-23T11:20:08.035Z,40.70
2017-12-23T11:22:34.748Z,35.63
2017-12-23T11:25:01.447Z,38.88
2017-12-23T11:27:28.668Z,37.65
2017-12-23T11:29:55.391Z,37.85
2017-12-23T11:32:22.106Z,43.55
2017-12-23T11:34:48.795Z,38.05
2017-12-23T11:37:16.299Z,42.53
2017-12-23T11:39:42.973Z,37.83
2017-12-23T11:42:15.648Z,37.65
2017-12-23T11:44:42.336Z,41.53
2017-12-23T11:47:09.038Z,39.47
2017-12-23T11:49:35.751Z,33.33
2017-12-23T11:52:02.462Z,35.10
2017-12-23T11:54:29.152Z,31.37
2017-12-23T11:56:55.867Z,32.30
2017-12-23T11:59:22.959Z,27.45
2017-12-23T12:01:49.651Z,32.33
2017-12-23T12:04:16.358Z,30.37
2017-12-23T12:06:43.050Z,28.12
2017-12-23T12:09:09.759Z,24.95
2017-12-23T12:11:36.444Z,28.30
2017-12-23T12:14:03.915Z,34.17
2017-12-23T12:16:30.611Z,33.60
2017-12-23T12:18:58.078Z,31.62
2017-12-23T12:21:25.370Z,32.70
2017-12-23T12:23:52.471Z,31.15
2017-12-23T12:26:19.858Z,32.83
2017-12-23T12:28:46.594Z,33.75
2017-12-23T12:31:13.296Z,34.28
2017-12-23T12:33:40.011Z,36.55
2017-12-23T12:36:06.943Z,33.22
2017-12-23T12:38:34.470Z,33.00
2017-12-23T12:41:01.154Z,32.10
2017-12-23T12:43:27.882Z,30.88
2017-12-23T12:45:56.041Z,28.60
2017-12-23T12:48:23.091Z,32.40
2017-12-23T12:50:49.783Z,33.50
2017-12-23T12:53:17.693Z,29.70
2017-12-23T12:55:44.388Z,34.60
2017-12-23T12:58:14.996Z,31.45
2017-12-23T13:00:42.005Z,30.65
2017-12-23T13:03:08.727Z,31.00
2017-12-23T13:05:35.419Z,30.17
2017-12-23T13:08:02.533Z,30.35
2017-12-23T13:10:29.880Z,24.95
2017-12-23T13:12:56.594Z,28.52
2017-12-23T13:15:23.882Z,29.50
2017-12-23T13:17:50.590Z,28.62
2017-12-23T13:20:18.471Z,27.13
2017-12-23T13:22:45.151Z,29.67
2017-12-23T13:25:11.856Z,28.80
2017-12-23T13:27:39.075Z,32.63
2017-12-23T13:30:06.238Z,28.12
2017-12-23T13:32:32.931Z,28.70
2017-12-23T13:34:59.643Z,32.38
2017-12-23T13:37:26.328Z,31.27
2017-12-23T13:39:53.043Z,28.30
2017-12-23T13:42:19.787Z,31.60
2017-12-23T13:44:46.490Z,29.60
2017-12-23T13:47:13.170Z,32.55
2017-12-23T13:49:40.615Z,33.72
2017-12-23T13:52:07.299Z,32.28
2017-12-23T13:54:34.015Z,29.20
2017-12-23T13:57:00.702Z,32.13
2017-12-23T13:59:27.412Z,32.28
2017-12-23T14:01:54.127Z,32.25
2017-12-23T14:04:20.830Z,31.90
2017-12-23T14:06:47.764Z,28.55
2017-12-23T14:09:14.450Z,33.65
2017-12-23T14:11:41.164Z,31.70
2017-12-23T14:14:07.851Z,32.60
2017-12-23T14:16:34.566Z,31.65
2017-12-23T14:19:01.243Z,30.83
2017-12-23T14:21:27.951Z,32.83
2017-12-23T14:23:54.647Z,34.42
2017-12-23T14:26:25.381Z,28.67
2017-12-23T14:28:52.321Z,29.75
2017-12-23T14:31:19.465Z,30.85
2017-12-23T14:33:46.159Z,30.83
2017-12-23T14:36:12.876Z,29.70
2017-12-23T14:38:39.563Z,26.23
2017-12-23T14:43:37.247Z,31.30
2017-12-23T14:46:04.630Z,29.60
2017-12-23T14:48:31.344Z,29.42
2017-12-23T14:50:58.044Z,32.88
2017-12-23T14:53:24.764Z,29.50
2017-12-23T14:55:51.457Z,31.27
2017-12-23T14:58:19.094Z,31.87
2017-12-23T15:00:45.775Z,29.77
2017-12-23T15:03:13.387Z,27.70
2017-12-23T15:05:40.071Z,31.12
2017-12-23T15:08:07.512Z,29.40
2017-12-23T15:10:34.731Z,30.60
2017-12-23T15:13:01.410Z,34.60
2017-12-23T15:15:28.489Z,34.00
2017-12-23T15:17:55.423Z,33.08
2017-12-23T15:20:23.131Z,36.42
2017-12-23T15:22:50.588Z,35.92
2017-12-23T15:25:17.297Z,35.08
2017-12-23T15:27:43.991Z,32.45
2017-12-23T15:30:10.956Z,32.85
2017-12-23T15:32:38.518Z,34.80
2017-12-23T15:35:05.223Z,36.53
2017-12-23T15:37:31.913Z,36.15
2017-12-23T15:39:58.623Z,33.08
2017-12-23T15:42:25.303Z,36.17
2017-12-23T15:44:52.011Z,34.95
2017-12-23T15:47:18.940Z,35.92
2017-12-23T15:49:45.959Z,36.55
2017-12-23T15:52:13.199Z,36.88
2017-12-23T15:54:40.360Z,40.17
2017-12-23T15:57:07.275Z,38.45
2017-12-23T15:59:33.967Z,37.78
2017-12-23T16:02:00.678Z,36.33
2017-12-23T16:04:27.375Z,35.15
2017-12-23T16:06:54.561Z,35.72
2017-12-23T16:09:21.245Z,37.30
2017-12-23T16:11:47.955Z,39.47
2017-12-23T16:14:14.635Z,36.58
2017-12-23T16:16:41.815Z,35.25
2017-12-23T16:19:08.503Z,40.10
2017-12-23T16:21:35.587Z,42.70
2017-12-23T16:24:02.291Z,41.20
2017-12-23T16:26:28.983Z,38.17
2017-12-23T16:28:55.704Z,39.22
2017-12-23T16:31:23.119Z,37.05
2017-12-23T16:33:49.826Z,41.42
2017-12-23T16:36:16.535Z,38.10
2017-12-23T16:38:43.244Z,37.40
2017-12-23T16:41:10.664Z,38.90
2017-12-23T16:43:37.369Z,37.28
2017-12-23T16:46:04.052Z,45.72
2017-12-23T16:48:30.759Z,40.40
2017-12-23T16:50:57.448Z,42.28
2017-12-23T16:53:24.163Z,46.30
2017-12-23T16:55:51.274Z,44.13
2017-12-23T16:58:17.995Z,42.05
2017-12-23T17:00:44.692Z,47.42
2017-12-23T17:03:11.745Z,42.00
2017-12-23T17:05:39.236Z,47.45
2017-12-23T17:08:06.708Z,43.05
2017-12-23T17:10:33.658Z,41.13
2017-12-23T17:13:00.623Z,42.62
2017-12-23T17:15:27.306Z,45.53
2017-12-23T17:17:54.028Z,46.58
2017-12-23T17:20:20.732Z,42.88
2017-12-23T17:22:47.467Z,47.83
2017-12-23T17:25:14.160Z,47.22
2017-12-23T17:27:40.853Z,42.95
2017-12-23T17:30:13.328Z,48.97
2017-12-23T17:32:40.024Z,48.50
2017-12-23T17:35:07.006Z,45.00
2017-12-23T17:37:34.569Z,48.60
2017-12-23T17:40:01.285Z,43.47
2017-12-23T17:42:27.971Z,47.25
2017-12-23T17:44:54.687Z,43.67
2017-12-23T17:47:21.403Z,42.80
2017-12-23T17:49:48.142Z,44.55
2017-12-23T17:52:14.871Z,44.60
2017-12-23T17:54:43.339Z,36.88
2017-12-23T17:57:11.691Z,45.58
2017-12-23T17:59:38.415Z,47.62
2017-12-23T18:09:38.614Z,41.17
2017-12-23T18:12:06.968Z,42.20
2017-12-23T18:14:33.706Z,43.90
2017-12-23T18:19:35.691Z,41.63
2017-12-23T18:24:45.819Z,40.75
2017-12-23T18:27:13.524Z,37.88
2017-12-23T18:29:41.558Z,37.90
2017-12-23T18:32:08.912Z,35.08
2017-12-23T18:34:37.874Z,38.67
2017-12-23T18:37:04.997Z,36.60
2017-12-23T18:39:32.919Z,37.63
2017-12-23T18:41:59.716Z,33.83
2017-12-23T18:44:30.313Z,34.88
2017-12-23T18:47:00.869Z,34.00
2017-12-23T18:49:28.865Z,36.85
2017-12-23T18:51:55.827Z,36.65
2017-12-23T18:54:24.844Z,35.05
2017-12-23T18:56:53.294Z,36.67
2017-12-23T18:59:23.222Z,36.58
2017-12-23T19:01:55.217Z,34.00
2017-12-23T19:04:26.230Z,33.08
2017-12-23T19:09:28.866Z,30.55
2017-12-23T19:11:55.870Z,31.77
2017-12-23T19:16:55.859Z,29.73
2017-12-23T19:19:24.887Z,33.45
2017-12-23T19:21:51.864Z,28.58
2017-12-23T19:24:19.331Z,32.10
2017-12-23T19:26:46.966Z,32.80
2017-12-23T19:34:20.251Z,31.67
2017-12-23T19:36:51.424Z,33.38
2017-12-23T19:39:22.174Z,33.75
2017-12-23T19:44:24.786Z,31.52
2017-12-23T19:46:52.842Z,27.05
2017-12-23T19:49:19.582Z,30.50
2017-12-23T19:51:48.613Z,29.02
2017-12-23T19:54:15.356Z,31.73
2017-12-23T19:56:43.300Z,28.73
2017-12-23T20:01:41.675Z,28.27
2017-12-23T20:04:09.831Z,28.95
2017-12-23T20:11:46.149Z,31.90
2017-12-23T20:14:13.886Z,27.42
2017-12-23T20:16:42.838Z,31.80
2017-12-23T20:19:12.167Z,30.83
2017-12-23T20:21:40.865Z,29.67
2017-12-23T20:24:10.543Z,32.70
2017-12-23T20:26:38.509Z,35.00
2017-12-23T20:29:06.811Z,36.13
2017-12-23T20:31:36.467Z,31.98
2017-12-23T20:34:10.534Z,33.65
2017-12-23T20:36:37.295Z,36.53
2017-12-23T20:39:05.411Z,32.28
2017-12-23T20:44:07.248Z,37.90
2017-12-23T20:46:37.234Z,39.95
2017-12-23T20:49:04.610Z,35.75
2017-12-23T20:51:32.371Z,36.65
2017-12-23T20:53:59.089Z,41.83
2017-12-23T20:56:26.978Z,36.88
2017-12-23T20:58:53.961Z,40.63
2017-12-23T21:01:21.006Z,37.20
2017-12-23T21:03:48.884Z,34.65
2017-12-23T21:06:16.502Z,38.40
2017-12-23T21:08:43.956Z,30.95
2017-12-23T21:11:11.165Z,33.30
2017-12-23T21:13:38.921Z,34.05
2017-12-23T21:16:06.307Z,32.90
2017-12-23T21:18:39.474Z,31.33
2017-12-23T21:21:08.451Z,33.67
2017-12-23T21:23:35.250Z,36.70
2017-12-23T21:26:02.088Z,35.28
2017-12-23T21:28:29.691Z,33.60
2017-12-23T21:30:56.454Z,35.92
2017-12-23T21:33:23.199Z,39.80
2017-12-23T21:38:21.793Z,37.35
2017-12-23T21:40:48.544Z,36.53
2017-12-23T21:43:15.286Z,35.80
2017-12-23T21:45:42.000Z,42.40
2017-12-23T21:48:09.155Z,35.70
2017-12-23T21:50:36.830Z,41.25
2017-12-23T21:53:06.618Z,35.30
2017-12-23T21:55:36.640Z,41.25
2017-12-23T21:58:04.324Z,33.55
2017-12-23T22:00:31.131Z,34.08
2017-12-23T22:02:58.279Z,33.83
2017-12-23T22:05:26.866Z,35.75
2017-12-23T22:07:53.978Z,31.92
2017-12-23T22:10:21.592Z,33.63
2017-12-23T22:12:48.401Z,31.90
2017-12-23T22:15:18.991Z,26.67
2017-12-23T22:20:23.944Z,24.02
2017-12-23T22:22:54.280Z,23.73
2017-12-23T22:25:22.964Z,23.45
2017-12-23T22:27:50.724Z,28.85
2017-12-23T22:30:17.491Z,24.95
2017-12-23T22:32:46.653Z,24.70
2017-12-23T22:35:13.746Z,21.65
2017-12-23T22:37:41.494Z,23.85
2017-12-23T22:40:08.244Z,26.02
2017-12-23T22:42:35.523Z,23.48
2017-12-23T22:45:05.135Z,22.27
2017-12-23T22:47:32.043Z,23.00
2017-12-23T22:50:00.079Z,24.90
2017-12-23T22:52:26.910Z,26.02
2017-12-23T22:54:54.751Z,24.87
2017-12-23T22:57:21.911Z,25.02
2017-12-23T22:59:49.065Z,25.58
2017-12-23T23:02:16.542Z,28.42
2017-12-23T23:04:43.829Z,25.65
2017-12-23T23:07:10.988Z,23.60
2017-12-23T23:09:39.974Z,25.42
2017-12-23T23:12:08.791Z,25.00
2017-12-23T23:14:35.546Z,26.42
2017-12-23T23:17:04.365Z,25.52
2017-12-23T23:19:31.728Z,26.40
2017-12-23T23:21:58.832Z,25.62
2017-12-23T23:24:25.992Z,26.23
2017-12-23T23:29:27.411Z,27.08
2017-12-23T23:31:55.235Z,23.98
2017-12-23T23:34:24.391Z,26.48
2017-12-23T23:36:57.467Z,26.90
2017-12-23T23:47:19.486Z,25.20
2017-12-23T23:52:22.699Z,26.17
2017-12-23T23:54:51.915Z,23.67
2017-12-23T23:57:23.207Z,26.23
2017-12-23T23:59:51.805Z,22.87
